createdAt,value
2019-04-10T00:00:09.273Z,11.20
2019-04-10T00:02:37.689Z,10.50
2019-04-10T00:05:05.134Z,10.50
2019-04-10T00:07:33.225Z,10.50
2019-04-10T00:10:00.040Z,10.50
2019-04-10T00:12:26.579Z,10.50
2019-04-10T00:17:49.280Z,10.60
2019-04-10T00:20:16.279Z,10.40
2019-04-10T00:22:43.031Z,10.50
2019-04-10T00:25:10.588Z,10.40
2019-04-10T00:27:38.858Z,10.50
2019-04-10T00:30:05.439Z,10.40
2019-04-10T00:32:32.131Z,10.50
2019-04-10T00:34:58.624Z,10.40
2019-04-10T00:37:28.508Z,10.40
2019-04-10T00:39:53.421Z,10.40
2019-04-10T00:42:21.509Z,10.40
2019-04-10T00:44:48.399Z,10.40
2019-04-10T00:47:14.955Z,10.40
2019-04-10T00:49:41.929Z,10.40
2019-04-10T00:52:08.539Z,10.40
2019-04-10T00:54:35.164Z,10.30
2019-04-10T00:57:01.677Z,10.30
2019-04-10T00:59:28.236Z,10.30
2019-04-10T01:01:54.831Z,10.30
2019-04-10T01:04:22.350Z,10.30
2019-04-10T01:06:48.867Z,10.30
2019-04-10T01:09:15.436Z,10.20
2019-04-10T01:11:43.347Z,10.30
2019-04-10T01:14:10.191Z,10.30
2019-04-10T01:16:37.547Z,10.30
2019-04-10T01:19:04.209Z,10.30
2019-04-10T01:21:30.621Z,10.30
2019-04-10T01:23:58.143Z,10.30
2019-04-10T01:26:25.312Z,10.30
2019-04-10T01:28:51.915Z,10.30
2019-04-10T01:31:19.857Z,10.30
2019-04-10T01:33:47.442Z,10.20
2019-04-10T01:36:14.908Z,10.30
2019-04-10T01:38:41.882Z,10.30
2019-04-10T01:41:08.425Z,10.20
2019-04-10T01:43:35.140Z,10.20
2019-04-10T01:46:04.191Z,10.20
2019-04-10T01:48:30.776Z,10.10
2019-04-10T01:53:41.900Z,10.20
2019-04-10T01:56:21.143Z,10.40
2019-04-10T01:58:37.479Z,10.30
2019-04-10T02:01:08.582Z,10.20
2019-04-10T02:03:36.183Z,10.20
2019-04-10T02:06:03.176Z,10.20
2019-04-10T02:08:29.894Z,10.10
2019-04-10T02:10:56.612Z,9.40
2019-04-10T02:13:23.464Z,10.10
2019-04-10T02:18:47.769Z,10.30
2019-04-10T02:21:14.351Z,10.10
2019-04-10T02:23:40.758Z,10.10
2019-04-10T02:26:07.459Z,10.10
2019-04-10T02:28:35.035Z,10.10
2019-04-10T02:31:03.001Z,10.10
2019-04-10T02:33:31.275Z,10.00
2019-04-10T02:35:59.144Z,10.10
2019-04-10T02:38:43.037Z,10.00
2019-04-10T02:40:55.525Z,10.10
2019-04-10T02:43:23.839Z,10.00
2019-04-10T02:45:51.196Z,10.00
2019-04-10T02:48:19.219Z,10.00
2019-04-10T02:50:46.158Z,9.90
2019-04-10T02:53:13.090Z,9.90
2019-04-10T02:55:40.862Z,10.00
2019-04-10T02:58:07.939Z,9.90
2019-04-10T03:00:56.192Z,9.90
2019-04-10T03:03:23.279Z,9.90
2019-04-10T03:05:50.984Z,9.80
2019-04-10T03:08:17.877Z,10.00
2019-04-10T03:10:50.560Z,9.90
2019-04-10T03:13:13.752Z,9.90
2019-04-10T03:15:40.985Z,9.90
2019-04-10T03:18:08.360Z,9.90
2019-04-10T03:20:35.004Z,9.90
2019-04-10T03:23:05.255Z,9.80
2019-04-10T03:25:33.010Z,8.90
2019-04-10T03:28:00.779Z,9.90
2019-04-10T03:30:30.172Z,9.90
2019-04-10T03:33:18.342Z,9.90
2019-04-10T03:35:48.535Z,9.90
2019-04-10T03:38:16.168Z,9.90
2019-04-10T03:40:44.603Z,9.80
2019-04-10T03:43:11.840Z,9.80
2019-04-10T03:45:38.956Z,9.80
2019-04-10T03:48:06.416Z,9.80
2019-04-10T03:50:33.970Z,9.70
2019-04-10T03:53:00.810Z,8.70
2019-04-10T03:55:29.225Z,9.80
2019-04-10T03:57:56.842Z,9.80
2019-04-10T04:00:23.372Z,9.80
2019-04-10T04:02:49.981Z,9.80
2019-04-10T04:05:16.728Z,9.80
2019-04-10T04:07:43.526Z,9.90
2019-04-10T04:10:12.750Z,9.90
2019-04-10T04:12:39.449Z,9.90
2019-04-10T04:15:05.902Z,9.90
2019-04-10T04:17:32.581Z,9.90
2019-04-10T04:19:59.136Z,9.80
2019-04-10T04:22:25.719Z,9.80
2019-04-10T04:24:52.412Z,9.80
2019-04-10T04:27:19.994Z,9.80
2019-04-10T04:29:47.547Z,9.80
2019-04-10T04:32:14.211Z,9.70
2019-04-10T04:34:40.635Z,9.70
2019-04-10T04:37:07.885Z,9.60
2019-04-10T04:39:35.046Z,9.70
2019-04-10T04:42:01.733Z,9.60
2019-04-10T04:44:29.197Z,9.70
2019-04-10T04:46:57.030Z,9.80
2019-04-10T04:49:24.285Z,9.70
2019-04-10T04:51:51.203Z,9.80
2019-04-10T04:54:19.644Z,9.80
2019-04-10T04:56:46.439Z,9.70
2019-04-10T04:59:14.150Z,9.70
2019-04-10T05:01:40.627Z,9.60
2019-04-10T05:04:07.159Z,9.60
2019-04-10T05:06:33.749Z,9.50
2019-04-10T05:09:01.300Z,9.50
2019-04-10T05:11:30.631Z,9.40
2019-04-10T05:13:59.273Z,9.40
2019-04-10T05:16:25.765Z,10.70
2019-04-10T05:18:52.251Z,9.50
2019-04-10T05:21:19.141Z,9.50
2019-04-10T05:23:45.679Z,9.50
2019-04-10T05:26:12.318Z,9.90
2019-04-10T05:28:40.236Z,9.50
2019-04-10T05:31:08.735Z,9.50
2019-04-10T05:33:36.605Z,9.60
2019-04-10T05:36:03.280Z,9.50
2019-04-10T05:38:29.901Z,9.60
2019-04-10T05:40:57.162Z,9.50
2019-04-10T05:43:24.035Z,9.60
2019-04-10T05:45:52.984Z,9.60
2019-04-10T05:48:22.093Z,9.70
2019-04-10T05:50:57.691Z,9.80
2019-04-10T05:53:18.807Z,9.60
2019-04-10T05:55:45.433Z,9.80
2019-04-10T05:58:12.053Z,9.40
2019-04-10T06:00:38.577Z,9.80
2019-04-10T06:03:06.611Z,9.90
2019-04-10T06:05:34.098Z,9.80
2019-04-10T06:08:01.352Z,9.90
2019-04-10T06:10:28.167Z,9.90
2019-04-10T06:12:55.059Z,10.00
2019-04-10T06:15:21.605Z,10.10
2019-04-10T06:17:48.983Z,10.10
2019-04-10T06:20:15.860Z,12.30
2019-04-10T06:22:43.813Z,10.30
2019-04-10T06:25:13.390Z,10.30
2019-04-10T06:27:39.447Z,10.30
2019-04-10T06:30:07.778Z,10.40
2019-04-10T06:32:34.624Z,10.40
2019-04-10T06:35:01.907Z,10.40
2019-04-10T06:37:28.742Z,10.40
2019-04-10T06:40:07.667Z,10.40
2019-04-10T06:42:24.514Z,10.50
2019-04-10T06:44:52.325Z,10.60
2019-04-10T06:47:18.930Z,10.40
2019-04-10T06:49:45.669Z,10.40
2019-04-10T06:52:12.411Z,10.40
2019-04-10T06:54:38.970Z,10.50
2019-04-10T06:57:19.138Z,10.50
2019-04-10T06:59:46.108Z,10.90
2019-04-10T07:02:21.704Z,9.40
2019-04-10T07:04:47.768Z,10.40
2019-04-10T07:07:15.157Z,10.50
2019-04-10T07:09:40.033Z,10.50
2019-04-10T07:12:06.617Z,10.50
2019-04-10T07:14:36.199Z,11.30
2019-04-10T07:17:05.290Z,10.70
2019-04-10T07:19:30.372Z,10.90
2019-04-10T07:21:58.916Z,11.00
2019-04-10T07:24:25.496Z,11.10
2019-04-10T07:26:53.180Z,11.30
2019-04-10T07:29:24.757Z,11.40
2019-04-10T07:31:48.788Z,11.60
2019-04-10T07:34:15.399Z,11.70
2019-04-10T07:36:45.135Z,11.70
2019-04-10T07:39:13.055Z,11.60
2019-04-10T07:41:39.769Z,11.80
2019-04-10T07:44:06.304Z,11.80
2019-04-10T07:46:32.754Z,11.40
2019-04-10T07:48:59.216Z,11.50
2019-04-10T07:51:25.686Z,11.30
2019-04-10T07:53:52.358Z,11.30
2019-04-10T07:56:20.793Z,11.30
2019-04-10T07:58:48.192Z,11.30
2019-04-10T08:01:16.096Z,11.30
2019-04-10T08:03:43.759Z,11.30
2019-04-10T08:06:11.086Z,11.10
2019-04-10T08:08:38.336Z,11.10
2019-04-10T08:11:07.037Z,10.90
2019-04-10T08:13:33.544Z,10.80
2019-04-10T08:16:00.735Z,10.60
2019-04-10T08:18:27.621Z,10.50
2019-04-10T08:20:55.131Z,10.50
2019-04-10T08:23:21.817Z,10.50
2019-04-10T08:25:49.496Z,10.50
2019-04-10T08:28:16.066Z,10.40
2019-04-10T08:30:42.572Z,10.30
2019-04-10T08:33:09.877Z,10.40
2019-04-10T08:35:36.342Z,10.40
2019-04-10T08:38:03.386Z,10.50
2019-04-10T08:40:30.065Z,12.40
2019-04-10T08:42:59.830Z,10.60
2019-04-10T08:45:35.788Z,10.70
2019-04-10T08:47:54.657Z,10.70
2019-04-10T08:50:21.842Z,10.80
2019-04-10T08:52:48.712Z,10.80
2019-04-10T08:55:15.679Z,10.70
2019-04-10T08:57:42.285Z,10.70
2019-04-10T09:00:08.671Z,10.50
2019-04-10T09:02:35.924Z,10.50
2019-04-10T09:05:05.685Z,10.50
2019-04-10T09:07:32.518Z,10.50
2019-04-10T09:10:01.886Z,10.60
2019-04-10T09:12:29.502Z,10.50
2019-04-10T09:14:57.153Z,10.40
2019-04-10T09:17:24.935Z,10.40
2019-04-10T09:19:52.527Z,10.30
2019-04-10T09:22:30.112Z,10.40
2019-04-10T09:24:56.686Z,10.40
2019-04-10T09:27:23.071Z,10.40
2019-04-10T09:29:50.057Z,9.70
2019-04-10T09:32:18.014Z,10.60
2019-04-10T09:34:46.665Z,10.70
2019-04-10T09:37:15.673Z,10.70
2019-04-10T09:39:43.202Z,10.90
2019-04-10T09:42:10.665Z,11.00
2019-04-10T09:44:37.951Z,11.00
2019-04-10T09:47:05.524Z,11.20
2019-04-10T09:49:40.337Z,11.20
2019-04-10T09:52:02.766Z,11.40
2019-04-10T09:54:31.396Z,11.40
2019-04-10T09:56:59.106Z,11.40
2019-04-10T09:59:35.734Z,11.40
2019-04-10T10:01:55.039Z,11.50
2019-04-10T10:04:22.342Z,11.50
2019-04-10T10:06:49.374Z,11.40
2019-04-10T10:09:15.981Z,10.40
2019-04-10T10:11:42.759Z,11.50
2019-04-10T10:14:10.362Z,11.60
2019-04-10T10:16:37.073Z,12.00
2019-04-10T10:19:03.669Z,11.80
2019-04-10T10:21:30.107Z,11.90
2019-04-10T10:23:56.463Z,11.90
2019-04-10T10:26:23.883Z,11.90
2019-04-10T10:28:50.549Z,11.90
2019-04-10T10:31:16.988Z,12.00
2019-04-10T10:33:43.402Z,12.00
2019-04-10T10:36:09.833Z,12.00
2019-04-10T10:38:37.001Z,12.10
2019-04-10T10:41:04.589Z,12.30
2019-04-10T10:43:32.187Z,12.20
2019-04-10T10:45:58.963Z,12.30
2019-04-10T10:48:25.401Z,12.50
2019-04-10T10:50:53.360Z,12.50
2019-04-10T10:53:19.912Z,12.50
2019-04-10T10:55:47.618Z,12.40
2019-04-10T10:58:14.039Z,12.40
2019-04-10T11:00:41.517Z,12.50
2019-04-10T11:03:07.892Z,12.40
2019-04-10T11:05:35.110Z,12.50
2019-04-10T11:08:02.693Z,12.30
2019-04-10T11:10:30.065Z,12.20
2019-04-10T11:12:56.587Z,12.20
2019-04-10T11:15:23.885Z,12.20
2019-04-10T11:17:51.903Z,12.20
2019-04-10T11:20:19.819Z,12.20
2019-04-10T11:22:47.454Z,12.20
2019-04-10T11:25:15.586Z,13.20
2019-04-10T11:27:53.959Z,12.10
2019-04-10T11:30:20.925Z,12.20
2019-04-10T11:32:48.720Z,12.20
2019-04-10T11:35:15.635Z,12.20
2019-04-10T11:37:45.459Z,12.20
2019-04-10T11:40:12.482Z,12.30
2019-04-10T11:42:40.120Z,12.30
2019-04-10T11:45:08.047Z,12.20
2019-04-10T11:47:36.426Z,12.30
2019-04-10T11:50:10.385Z,12.30
2019-04-10T11:52:39.515Z,12.20
2019-04-10T11:55:10.287Z,12.20
2019-04-10T11:57:32.101Z,12.10
2019-04-10T12:00:02.265Z,12.10
2019-04-10T12:02:28.174Z,12.00
2019-04-10T12:05:01.487Z,12.00
2019-04-10T12:07:58.574Z,12.00
2019-04-10T12:12:21.678Z,12.00
2019-04-10T12:14:48.279Z,11.50
2019-04-10T12:17:15.808Z,12.10
2019-04-10T12:19:42.516Z,12.10
2019-04-10T12:22:09.502Z,12.20
2019-04-10T12:24:36.365Z,12.40
2019-04-10T12:27:06.512Z,12.60
2019-04-10T12:29:36.538Z,12.80
2019-04-10T12:32:04.179Z,12.80
2019-04-10T12:34:32.571Z,12.90
2019-04-10T12:36:58.995Z,12.90
2019-04-10T12:39:25.627Z,12.90
2019-04-10T12:41:52.052Z,12.90
2019-04-10T12:44:18.536Z,12.90
2019-04-10T12:46:47.131Z,12.90
2019-04-10T12:49:15.075Z,12.90
2019-04-10T12:51:41.676Z,12.70
2019-04-10T12:54:08.162Z,12.60
2019-04-10T12:56:34.656Z,12.60
2019-04-10T12:59:01.370Z,12.60
2019-04-10T13:01:28.900Z,12.50
2019-04-10T13:03:55.692Z,12.40
2019-04-10T13:06:22.232Z,12.30
2019-04-10T13:08:59.177Z,12.30
2019-04-10T13:11:17.030Z,12.20
2019-04-10T13:13:44.537Z,12.10
2019-04-10T13:16:11.988Z,12.10
2019-04-10T13:18:38.814Z,12.10
2019-04-10T13:21:06.250Z,12.10
2019-04-10T13:23:33.051Z,12.10
2019-04-10T13:26:00.964Z,12.10
2019-04-10T13:28:27.959Z,12.20
2019-04-10T13:30:56.573Z,12.30
2019-04-10T13:33:22.789Z,12.30
2019-04-10T13:39:33.355Z,12.30
2019-04-10T13:42:00.921Z,12.30
2019-04-10T13:44:27.420Z,12.40
2019-04-10T13:46:53.908Z,12.40
2019-04-10T13:49:20.365Z,12.50
2019-04-10T13:51:47.687Z,12.50
2019-04-10T13:54:15.851Z,12.50
2019-04-10T13:56:43.386Z,12.30
2019-04-10T13:59:10.959Z,12.30
2019-04-10T14:01:38.008Z,12.30
2019-04-10T14:04:05.725Z,12.30
2019-04-10T14:06:37.994Z,12.40
2019-04-10T14:09:26.419Z,12.50
2019-04-10T14:11:37.523Z,12.60
2019-04-10T14:14:04.543Z,12.70
2019-04-10T14:16:31.012Z,12.80
2019-04-10T14:18:57.386Z,12.80
2019-04-10T14:21:24.882Z,12.80
2019-04-10T14:23:51.966Z,11.90
2019-04-10T14:26:39.168Z,12.90
2019-04-10T14:28:58.183Z,12.90
2019-04-10T14:31:26.673Z,12.90
2019-04-10T14:33:53.505Z,12.90
2019-04-10T14:36:20.923Z,13.00
2019-04-10T14:38:47.818Z,13.00
2019-04-10T14:41:14.219Z,13.10
2019-04-10T14:43:42.674Z,13.10
2019-04-10T14:46:13.027Z,13.00
2019-04-10T14:48:40.351Z,13.00
2019-04-10T14:51:08.088Z,13.00
2019-04-10T14:53:35.279Z,12.90
2019-04-10T14:56:02.037Z,12.90
2019-04-10T14:58:30.647Z,12.90
2019-04-10T15:00:57.901Z,12.90
2019-04-10T15:03:24.460Z,12.80
2019-04-10T15:05:54.487Z,12.80
2019-04-10T15:08:21.759Z,12.60
2019-04-10T15:10:48.433Z,12.80
2019-04-10T15:13:19.727Z,12.90
2019-04-10T15:15:43.381Z,12.90
2019-04-10T15:18:10.872Z,12.90
2019-04-10T15:20:37.644Z,12.80
2019-04-10T15:23:05.024Z,12.80
2019-04-10T15:25:31.669Z,12.70
2019-04-10T15:28:00.144Z,12.70
2019-04-10T15:30:32.745Z,12.60
2019-04-10T15:32:58.797Z,12.60
2019-04-10T15:35:26.468Z,12.50
2019-04-10T15:37:53.464Z,12.50
2019-04-10T15:40:25.214Z,12.50
2019-04-10T15:42:48.357Z,12.50
2019-04-10T15:45:15.002Z,12.50
2019-04-10T15:47:50.666Z,12.50
2019-04-10T15:50:11.590Z,12.40
2019-04-10T15:52:39.608Z,12.50
2019-04-10T15:55:07.900Z,12.40
2019-04-10T15:57:46.988Z,12.40
2019-04-10T16:00:05.728Z,12.40
2019-04-10T16:02:32.907Z,12.40
2019-04-10T16:04:59.450Z,12.40
2019-04-10T16:07:27.266Z,12.40
2019-04-10T16:09:56.606Z,12.40
2019-04-10T16:12:24.837Z,12.40
2019-04-10T16:14:52.696Z,12.40
2019-04-10T16:17:22.343Z,12.40
2019-04-10T16:20:09.197Z,12.40
2019-04-10T16:22:40.613Z,12.30
2019-04-10T16:25:13.771Z,12.30
2019-04-10T16:27:41.131Z,12.30
2019-04-10T16:30:10.292Z,12.20
2019-04-10T16:32:37.029Z,12.20
2019-04-10T16:35:05.207Z,12.20
2019-04-10T16:37:31.795Z,12.20
2019-04-10T16:40:03.631Z,12.00
2019-04-10T16:42:26.702Z,12.00
2019-04-10T16:44:53.342Z,12.00
2019-04-10T16:47:21.746Z,11.80
2019-04-10T16:49:48.896Z,11.80
2019-04-10T16:52:15.343Z,11.80
2019-04-10T16:54:42.954Z,11.70
2019-04-10T16:57:10.620Z,11.70
2019-04-10T16:59:37.573Z,11.60
2019-04-10T17:02:09.377Z,11.60
2019-04-10T17:04:36.954Z,11.50
2019-04-10T17:07:04.200Z,11.50
2019-04-10T17:09:32.350Z,10.70
2019-04-10T17:11:59.233Z,11.40
2019-04-10T17:14:25.633Z,11.30
2019-04-10T17:16:52.187Z,11.30
2019-04-10T17:19:19.437Z,11.20
2019-04-10T17:21:46.741Z,11.20
2019-04-10T17:24:13.578Z,11.20
2019-04-10T17:26:41.197Z,11.10
2019-04-10T17:29:09.115Z,11.10
2019-04-10T17:31:35.831Z,11.10
2019-04-10T17:34:02.747Z,11.10
2019-04-10T17:36:29.423Z,11.00
2019-04-10T17:38:59.130Z,11.00
2019-04-10T17:41:26.122Z,11.00
2019-04-10T17:43:54.389Z,11.00
2019-04-10T17:46:21.153Z,10.90
2019-04-10T17:48:47.523Z,10.90
2019-04-10T17:51:14.101Z,10.90
2019-04-10T17:53:41.863Z,11.00
2019-04-10T17:56:08.509Z,10.90
2019-04-10T17:58:35.841Z,10.90
2019-04-10T18:01:04.408Z,10.90
2019-04-10T18:03:42.837Z,10.80
2019-04-10T18:05:59.383Z,10.80
2019-04-10T18:08:27.126Z,10.80
2019-04-10T18:10:55.736Z,10.80
2019-04-10T18:13:24.490Z,10.70
2019-04-10T18:15:54.131Z,10.70
2019-04-10T18:18:21.953Z,10.60
2019-04-10T18:20:49.933Z,11.90
2019-04-10T18:23:17.585Z,10.60
2019-04-10T18:25:44.455Z,10.50
2019-04-10T18:28:11.632Z,10.50
2019-04-10T18:30:38.593Z,10.50
2019-04-10T18:33:06.708Z,10.50
2019-04-10T18:35:33.686Z,10.50
2019-04-10T18:38:01.401Z,10.40
2019-04-10T18:40:28.848Z,10.40
2019-04-10T18:42:58.099Z,10.20
2019-04-10T18:45:25.905Z,10.60
2019-04-10T18:47:52.690Z,10.40
2019-04-10T18:50:20.231Z,10.50
2019-04-10T18:52:47.694Z,10.40
2019-04-10T18:55:16.256Z,10.30
2019-04-10T18:57:43.857Z,10.30
2019-04-10T19:00:30.180Z,10.30
2019-04-10T19:02:59.273Z,10.30
2019-04-10T19:05:29.730Z,10.30
2019-04-10T19:07:56.697Z,10.30
2019-04-10T19:10:24.307Z,10.30
2019-04-10T19:12:50.821Z,10.30
2019-04-10T19:15:17.703Z,10.20
2019-04-10T19:17:44.335Z,10.30
2019-04-10T19:20:11.232Z,10.20
2019-04-10T19:22:38.718Z,10.30
2019-04-10T19:25:06.087Z,10.20
2019-04-10T19:27:36.515Z,10.30
2019-04-10T19:30:08.212Z,10.20
2019-04-10T19:32:38.664Z,10.20
2019-04-10T19:35:07.155Z,10.10
2019-04-10T19:37:35.136Z,10.10
2019-04-10T19:40:05.008Z,10.10
2019-04-10T19:42:33.446Z,10.10
2019-04-10T19:45:01.510Z,10.00
2019-04-10T19:47:28.478Z,10.00
2019-04-10T19:49:55.159Z,10.00
2019-04-10T19:52:22.470Z,10.10
2019-04-10T19:54:49.391Z,10.00
2019-04-10T19:57:15.914Z,10.10
2019-04-10T19:59:42.425Z,10.00
2019-04-10T20:02:09.229Z,10.00
2019-04-10T20:04:38.819Z,10.00
2019-04-10T20:07:09.034Z,10.00
2019-04-10T20:09:36.756Z,9.90
2019-04-10T20:12:04.428Z,10.00
2019-04-10T20:14:32.591Z,9.90
2019-04-10T20:17:01.747Z,9.90
2019-04-10T20:19:30.797Z,9.90
2019-04-10T20:21:57.040Z,9.80
2019-04-10T20:24:23.643Z,9.80
2019-04-10T20:26:50.136Z,9.80
2019-04-10T20:29:17.159Z,9.80
2019-04-10T20:31:43.832Z,9.80
2019-04-10T20:34:11.447Z,9.70
2019-04-10T20:36:38.893Z,9.70
2019-04-10T20:39:07.732Z,9.70
2019-04-10T20:41:45.020Z,9.70
2019-04-10T20:44:03.733Z,9.60
2019-04-10T20:46:30.587Z,9.70
2019-04-10T20:48:57.227Z,9.60
2019-04-10T20:51:25.031Z,9.60
2019-04-10T20:53:52.525Z,9.80
2019-04-10T20:56:19.959Z,9.60
2019-04-10T20:58:47.092Z,10.70
2019-04-10T21:01:14.520Z,9.60
2019-04-10T21:03:41.069Z,9.60
2019-04-10T21:06:08.916Z,9.60
2019-04-10T21:08:36.313Z,9.60
2019-04-10T21:11:03.398Z,9.60
2019-04-10T21:13:34.065Z,9.60
2019-04-10T21:16:00.877Z,9.60
2019-04-10T21:18:27.357Z,9.60
2019-04-10T21:20:53.862Z,9.60
2019-04-10T21:23:20.325Z,9.60
2019-04-10T21:25:47.669Z,9.60
2019-04-10T21:28:14.219Z,9.60
2019-04-10T21:30:54.376Z,9.60
2019-04-10T21:33:34.772Z,9.60
2019-04-10T21:36:01.801Z,9.50
2019-04-10T21:38:28.353Z,9.50
2019-04-10T21:40:55.312Z,9.50
2019-04-10T21:43:22.781Z,10.90
2019-04-10T21:45:49.763Z,9.50
2019-04-10T21:48:16.803Z,9.40
2019-04-10T21:50:43.957Z,9.40
2019-04-10T21:53:10.507Z,9.40
2019-04-10T21:55:51.837Z,9.30
2019-04-10T21:58:18.343Z,9.00
2019-04-10T22:03:48.132Z,9.30
2019-04-10T22:06:28.831Z,9.40
2019-04-10T22:08:58.210Z,9.30
2019-04-10T22:11:25.336Z,9.30
2019-04-10T22:13:54.715Z,9.30
2019-04-10T22:16:24.055Z,9.30
2019-04-10T22:18:50.587Z,9.30
2019-04-10T22:21:17.092Z,9.30
2019-04-10T22:23:44.690Z,9.30
2019-04-10T22:26:11.672Z,9.40
2019-04-10T22:28:39.363Z,9.60
2019-04-10T22:31:06.096Z,9.40
2019-04-10T22:33:36.149Z,9.40
2019-04-10T22:36:04.397Z,9.80
2019-04-10T22:38:31.143Z,9.50
2019-04-10T22:40:58.544Z,9.50
2019-04-10T22:43:24.996Z,9.50
2019-04-10T22:45:51.482Z,9.50
2019-04-10T22:48:18.814Z,9.50
2019-04-10T22:50:45.405Z,9.50
2019-04-10T22:53:15.175Z,9.50
2019-04-10T22:55:42.884Z,9.50
2019-04-10T22:58:09.456Z,9.40
2019-04-10T23:00:35.997Z,9.50
2019-04-10T23:03:03.171Z,9.50
2019-04-10T23:05:30.218Z,9.50
2019-04-10T23:07:56.686Z,9.40
2019-04-10T23:10:23.207Z,9.40
2019-04-10T23:12:58.111Z,9.50
2019-04-10T23:15:19.589Z,9.50
2019-04-10T23:17:46.757Z,9.40
2019-04-10T23:20:14.186Z,9.40
2019-04-10T23:22:41.105Z,9.40
2019-04-10T23:25:07.897Z,9.30
2019-04-10T23:27:35.433Z,9.30
2019-04-10T23:30:06.545Z,9.20
2019-04-10T23:32:33.211Z,9.20
2019-04-10T23:35:00.946Z,9.10
2019-04-10T23:37:28.944Z,9.10
2019-04-10T23:39:56.536Z,9.10
2019-04-10T23:42:23.678Z,10.10
2019-04-10T23:44:51.214Z,9.00
2019-04-10T23:47:18.106Z,8.90
2019-04-10T23:49:47.936Z,9.00
2019-04-10T23:52:15.633Z,8.80
2019-04-10T23:54:43.642Z,8.80
2019-04-10T23:57:11.437Z,8.80
2019-04-10T23:59:42.612Z,8.70
